Time;durP1;ratioP1;P1;durP2;ratioP2;P2;SDS_P1;SDS_P2;PMS_P1;PMS_P2;Temp;Humidity;BMP_temperature;BMP_pressure;BME280_temperature;BME280_humidity;BME280_pressure;Samples;Min_cycle;Max_cycle;Signal;HPM_P1;HPM_P2
2021/05/26 00:01:33;;;;;;;;;3.50;3.00;;;;;13.12;65.60;100822.88;5058250;28;46251;-85
2021/05/26 00:03:59;;;;;;;;;3.25;2.75;;;;;13.01;65.47;100803.44;5057976;28;45681;-88
2021/05/26 00:10:13;;;;;;;;;3.00;3.00;;;;;12.94;65.60;100812.78;5054199;28;46073;-84
2021/05/26 00:12:39;;;;;;;;;3.75;2.25;;;;;12.93;65.82;100815.53;5055863;28;46370;-87
2021/05/26 00:15:06;;;;;;;;;4.25;4.00;;;;;12.92;65.71;100805.97;5058596;28;45621;-83
2021/05/26 00:17:32;;;;;;;;;3.25;3.25;;;;;12.85;66.06;100791.59;5058384;28;45579;-84
2021/05/26 00:19:59;;;;;;;;;5.25;3.50;;;;;12.85;65.84;100795.06;5057495;28;45658;-86
2021/05/26 00:22:25;;;;;;;;;5.50;4.00;;;;;12.77;66.00;100780.88;5057393;28;46305;-86
2021/05/26 00:24:50;;;;;;;;;3.00;3.00;;;;;12.80;66.12;100780.59;5056961;28;45603;-82
2021/05/26 00:27:16;;;;;;;;;3.75;3.00;;;;;12.75;65.95;100774.88;5057164;28;45580;-87
2021/05/26 00:29:42;;;;;;;;;4.25;4.00;;;;;12.77;66.06;100780.88;5057007;28;46414;-85
2021/05/26 00:32:07;;;;;;;;;4.25;3.00;;;;;12.72;66.05;100768.06;5057318;28;46125;-87
2021/05/26 00:34:33;;;;;;;;;5.25;3.00;;;;;12.66;66.11;100754.56;5057724;28;46179;-85
2021/05/26 00:36:58;;;;;;;;;4.50;3.00;;;;;12.64;66.12;100754.69;5057820;28;45735;-84
2021/05/26 00:39:23;;;;;;;;;2.25;2.00;;;;;12.61;66.22;100742.63;5072868;28;47640;-84
2021/05/26 00:41:49;;;;;;;;;3.75;2.75;;;;;12.63;66.23;100747.78;5057609;28;45629;-82
2021/05/26 00:44:15;;;;;;;;;3.25;2.00;;;;;12.67;66.25;100740.47;5056389;28;45480;-82
2021/05/26 00:46:45;;;;;;;;;4.00;3.00;;;;;12.63;66.60;100733.78;5054903;28;45740;-82
2021/05/26 00:49:10;;;;;;;;;2.75;2.00;;;;;12.65;66.45;100729.22;5056263;28;46269;-85
2021/05/26 00:54:57;;;;;;;;;3.25;2.00;;;;;12.60;66.30;100706.78;5061381;28;46187;-86
2021/05/26 00:57:24;;;;;;;;;1.50;1.00;;;;;12.63;66.45;100712.75;5060283;28;45784;-84
2021/05/26 00:59:49;;;;;;;;;2.75;2.00;;;;;12.61;66.73;100708.44;5074162;28;47485;-86
2021/05/26 01:02:14;;;;;;;;;2.75;1.75;;;;;12.57;66.91;100695.69;5059858;28;46426;-88
2021/05/26 01:04:40;;;;;;;;;1.75;1.75;;;;;12.61;67.22;100705.00;5058927;28;45694;-85
2021/05/26 01:10:29;;;;;;;;;3.25;2.50;;;;;12.43;67.28;100682.75;5051198;28;45927;-82
2021/05/26 01:12:55;;;;;;;;;2.00;2.00;;;;;12.43;67.52;100680.97;5058495;28;45692;-84
2021/05/26 01:15:22;;;;;;;;;3.25;2.00;;;;;12.44;67.41;100681.81;5058527;28;45594;-86
2021/05/26 01:17:48;;;;;;;;;4.25;3.00;;;;;12.39;67.28;100674.28;5056980;28;45633;-84
2021/05/26 01:20:27;;;;;;;;;4.50;4.00;;;;;12.40;67.39;100672.50;5056456;28;45664;-84
2021/05/26 01:22:53;;;;;;;;;6.25;3.00;;;;;12.39;67.43;100676.91;5055949;28;46271;-81
2021/05/26 01:25:19;;;;;;;;;3.75;3.00;;;;;12.31;67.59;100658.25;5057504;28;45698;-84
2021/05/26 01:27:45;;;;;;;;;3.25;2.50;;;;;12.32;67.95;100664.34;5056397;28;45857;-84
2021/05/26 01:30:11;;;;;;;;;3.00;2.00;;;;;12.30;68.17;100658.41;5058441;28;45710;-85
2021/05/26 01:32:41;;;;;;;;;2.00;2.00;;;;;12.26;67.99;100651.69;5058486;28;46201;-84
2021/05/26 01:35:08;;;;;;;;;4.00;3.00;;;;;12.27;68.01;100648.13;5057703;28;45643;-84
2021/05/26 01:37:38;;;;;;;;;3.00;2.50;;;;;12.25;68.15;100642.16;5057346;28;45484;-84
2021/05/26 01:40:06;;;;;;;;;3.00;2.00;;;;;12.20;68.26;100637.25;5057981;28;45654;-85
2021/05/26 01:42:32;;;;;;;;;2.75;2.00;;;;;12.20;68.07;100632.81;5056460;28;46312;-84
2021/05/26 01:44:59;;;;;;;;;3.50;2.00;;;;;12.19;68.08;100641.69;5058803;28;45680;-88
2021/05/26 01:47:24;;;;;;;;;2.00;2.00;;;;;12.15;68.22;100634.97;5059318;28;45642;-84
2021/05/26 01:49:50;;;;;;;;;4.00;2.00;;;;;12.17;68.39;100637.50;5059541;28;45775;-84
2021/05/26 01:55:39;;;;;;;;;3.50;1.50;;;;;12.15;68.34;100637.59;5059388;28;45800;-86
2021/05/26 01:58:05;;;;;;;;;2.00;1.25;;;;;12.13;68.87;100621.16;5057775;28;45734;-88
2021/05/26 02:00:31;;;;;;;;;4.00;3.00;;;;;12.15;69.01;100624.47;5057538;28;47614;-85
2021/05/26 02:02:56;;;;;;;;;1.75;1.75;;;;;12.15;68.78;100624.47;5057277;28;46258;-86
2021/05/26 02:05:22;;;;;;;;;2.00;1.75;;;;;12.17;68.65;100621.72;5057938;28;45632;-87
2021/05/26 02:07:48;;;;;;;;;2.00;1.00;;;;;12.16;68.70;100622.69;5056340;28;45689;-87
2021/05/26 02:10:16;;;;;;;;;3.00;2.50;;;;;12.14;68.87;100599.19;5057774;28;45863;-85
2021/05/26 02:12:44;;;;;;;;;3.00;2.00;;;;;12.13;68.81;100601.91;5056471;28;46134;-83
2021/05/26 02:15:13;;;;;;;;;1.75;1.00;;;;;12.17;68.77;100603.34;5056834;28;45980;-85
2021/05/26 02:17:38;;;;;;;;;5.50;4.00;;;;;12.16;68.66;100605.13;5056501;28;45847;-85
2021/05/26 02:20:08;;;;;;;;;2.00;1.75;;;;;12.19;68.82;100598.81;5057143;28;46508;-87
2021/05/26 02:25:56;;;;;;;;;3.00;2.50;;;;;12.16;69.12;100585.91;5054920;28;45724;-84
2021/05/26 02:28:21;;;;;;;;;3.25;3.25;;;;;12.16;69.36;100586.75;5055653;28;45657;-85
2021/05/26 02:30:47;;;;;;;;;3.00;2.00;;;;;12.15;69.48;100579.81;5056586;28;45633;-83
2021/05/26 02:33:12;;;;;;;;;2.75;2.00;;;;;12.17;69.86;100572.66;5057726;28;45815;-84
2021/05/26 02:35:38;;;;;;;;;1.00;1.00;;;;;12.12;69.81;100563.47;5058978;28;45990;-84
2021/05/26 02:38:04;;;;;;;;;2.00;1.00;;;;;12.14;69.88;100569.47;5059322;28;45576;-87
2021/05/26 02:40:33;;;;;;;;;2.00;2.00;;;;;12.16;69.65;100564.91;5057721;28;46631;-85
2021/05/26 02:42:58;;;;;;;;;1.25;1.25;;;;;12.19;69.90;100583.06;5058198;28;46144;-87
2021/05/26 02:45:24;;;;;;;;;4.25;2.50;;;;;12.16;69.84;100578.03;5055925;28;45612;-84
2021/05/26 02:47:49;;;;;;;;;2.00;1.00;;;;;12.20;69.79;100572.41;5054907;28;45798;-87
2021/05/26 02:50:17;;;;;;;;;2.50;2.00;;;;;12.18;69.92;100565.63;5054666;28;46588;-83
2021/05/26 02:56:04;;;;;;;;;2.00;2.00;;;;;12.22;70.00;100564.41;5056759;28;45695;-86
2021/05/26 02:58:29;;;;;;;;;9.50;7.75;;;;;12.19;69.82;100560.25;5057075;28;45534;-87
2021/05/26 03:00:55;;;;;;;;;2.00;1.50;;;;;12.26;69.80;100581.59;5053855;28;48431;-84
2021/05/26 03:03:20;;;;;;;;;2.00;2.00;;;;;12.21;69.85;100575.88;5068882;28;47198;-85
2021/05/26 03:05:45;;;;;;;;;2.50;1.00;;;;;12.27;70.10;100564.91;5053570;28;45798;-85
2021/05/26 03:08:11;;;;;;;;;2.50;2.00;;;;;12.24;69.98;100554.66;5053704;28;45538;-86
2021/05/26 03:10:36;;;;;;;;;2.00;1.00;;;;;12.28;69.96;100561.31;5054451;28;45712;-85
2021/05/26 03:13:02;;;;;;;;;1.75;1.75;;;;;12.25;69.98;100548.44;5054503;28;45820;-87
2021/05/26 03:15:27;;;;;;;;;2.00;2.00;;;;;12.31;70.10;100568.13;5054094;28;45647;-85
2021/05/26 03:17:56;;;;;;;;;3.00;1.50;;;;;12.29;70.99;100564.78;5054061;28;45610;-85
2021/05/26 03:20:21;;;;;;;;;3.25;2.00;;;;;12.35;70.77;100566.94;5054873;28;45669;-85
2021/05/26 03:26:08;;;;;;;;;1.75;1.00;;;;;12.30;71.53;100558.56;5053461;28;45534;-86
2021/05/26 03:28:34;;;;;;;;;1.50;1.00;;;;;12.30;71.46;100561.22;5053623;28;45757;-86
2021/05/26 03:31:00;;;;;;;;;2.00;2.00;;;;;12.31;71.86;100557.63;5052359;28;47662;-85
2021/05/26 03:33:26;;;;;;;;;1.75;1.00;;;;;12.25;71.87;100553.69;5053569;28;46041;-84
2021/05/26 03:35:52;;;;;;;;;2.25;1.00;;;;;12.30;71.69;100561.22;5052788;28;45570;-84
2021/05/26 03:38:17;;;;;;;;;1.75;1.25;;;;;12.25;71.94;100548.44;5054331;28;45815;-84
2021/05/26 03:40:43;;;;;;;;;1.75;1.75;;;;;12.28;71.66;100556.06;5052209;28;48527;-84
2021/05/26 03:43:08;;;;;;;;;2.00;2.00;;;;;12.30;71.48;100534.94;5055997;28;45696;-84
2021/05/26 03:45:34;;;;;;;;;2.00;2.00;;;;;12.35;71.33;100544.13;5057452;28;45733;-83
2021/05/26 03:48:00;;;;;;;;;3.25;2.50;;;;;12.36;71.98;100543.13;5055901;28;45674;-86
2021/05/26 03:50:27;;;;;;;;;1.25;1.00;;;;;12.31;71.92;100534.78;5054182;28;45779;-84
2021/05/26 03:56:14;;;;;;;;;1.00;1.00;;;;;12.37;71.67;100543.97;5053412;28;45753;-85
2021/05/26 03:58:40;;;;;;;;;2.00;1.25;;;;;12.37;71.73;100544.81;5051975;28;45909;-84
2021/05/26 04:01:05;;;;;;;;;0.50;0.25;;;;;12.40;72.14;100547.22;5053711;28;45693;-85
2021/05/26 04:03:31;;;;;;;;;1.25;1.00;;;;;12.41;72.09;100533.13;5053480;28;46802;-84
2021/05/26 04:05:56;;;;;;;;;1.00;1.00;;;;;12.41;71.96;100529.66;5053427;28;45562;-84
2021/05/26 04:08:21;;;;;;;;;1.00;0.75;;;;;12.48;71.83;100539.53;5053380;28;45526;-85
2021/05/26 04:10:48;;;;;;;;;0.50;0.50;;;;;12.48;72.21;100534.28;5052895;28;45682;-84
2021/05/26 04:13:14;;;;;;;;;1.50;1.00;;;;;12.47;72.56;100540.50;5054640;28;45932;-85
2021/05/26 04:15:39;;;;;;;;;3.00;2.00;;;;;12.43;72.32;100533.81;5056281;28;45668;-88
2021/05/26 04:18:06;;;;;;;;;1.25;1.00;;;;;12.47;72.40;100529.97;5057927;28;45640;-85
2021/05/26 04:20:32;;;;;;;;;1.50;1.50;;;;;12.49;72.16;100525.44;5055545;28;48891;-84
2021/05/26 04:26:19;;;;;;;;;0.00;0.00;;;;;12.51;72.53;100536.69;5056045;28;45882;-85
2021/05/26 04:28:45;;;;;;;;;1.00;1.00;;;;;12.56;72.46;100539.78;5056261;28;45937;-83
2021/05/26 04:31:11;;;;;;;;;1.00;1.00;;;;;12.53;72.59;100539.16;5057259;28;45937;-85
2021/05/26 04:33:37;;;;;;;;;1.50;0.00;;;;;12.61;72.49;100539.41;5057082;28;45897;-84
2021/05/26 04:36:03;;;;;;;;;1.00;0.00;;;;;12.59;72.20;100530.78;5054815;28;45549;-84
2021/05/26 04:41:50;;;;;;;;;0.00;0.00;;;;;12.66;72.27;100531.97;5056295;28;45796;-85
2021/05/26 04:44:15;;;;;;;;;1.00;1.00;;;;;12.71;72.25;100523.72;5056101;28;45994;-84
2021/05/26 04:46:42;;;;;;;;;0.00;0.00;;;;;12.74;72.43;100544.50;5071395;28;45737;-86
2021/05/26 04:49:07;;;;;;;;;0.00;0.00;;;;;12.72;73.19;100536.75;5057061;28;45567;-86
2021/05/26 04:51:33;;;;;;;;;1.00;0.00;;;;;12.74;72.36;100532.19;5054915;28;47893;-85
2021/05/26 04:53:58;;;;;;;;;0.00;0.00;;;;;12.81;72.13;100537.78;5057353;28;45703;-86
2021/05/26 04:56:23;;;;;;;;;0.00;0.00;;;;;12.75;72.64;100539.09;5072387;28;46085;-87
2021/05/26 04:58:49;;;;;;;;;0.50;0.00;;;;;12.80;72.45;100534.31;5058652;28;45770;-83
2021/05/26 05:01:16;;;;;;;;;0.50;0.00;;;;;12.83;73.06;100541.97;5056990;28;45565;-83
2021/05/26 05:03:41;;;;;;;;;0.00;0.00;;;;;12.78;72.48;100544.13;5055864;28;45984;-86
2021/05/26 05:06:08;;;;;;;;;0.75;0.00;;;;;12.84;73.25;100564.69;5055830;28;45696;-84
2021/05/26 05:11:55;;;;;;;;;0.00;0.00;;;;;12.83;73.44;100572.69;5044979;28;46042;-83
2021/05/26 05:14:20;;;;;;;;;0.00;0.00;;;;;12.80;73.58;100572.91;5056776;28;45697;-86
2021/05/26 05:16:46;;;;;;;;;0.00;0.00;;;;;12.84;73.34;100596.22;5054449;28;45637;-87
2021/05/26 05:19:11;;;;;;;;;0.00;0.00;;;;;12.83;72.91;100591.91;5056996;28;45644;-89
2021/05/26 05:21:36;;;;;;;;;0.00;0.00;;;;;12.83;72.99;100610.31;5057737;28;46713;-85
2021/05/26 05:24:02;;;;;;;;;0.00;0.00;;;;;12.77;72.80;100671.28;5055780;28;45985;-85
2021/05/26 05:26:27;;;;;;;;;0.00;0.00;;;;;12.80;72.12;100630.75;5054078;28;45832;-88
2021/05/26 05:28:53;;;;;;;;;0.00;0.00;;;;;12.79;71.94;100618.59;5053948;28;45963;-86
2021/05/26 05:31:18;;;;;;;;;0.00;0.00;;;;;12.77;71.46;100634.47;5056311;28;46016;-87
2021/05/26 05:33:44;;;;;;;;;0.00;0.00;;;;;12.75;71.42;100615.34;5056619;28;45640;-85
2021/05/26 05:36:09;;;;;;;;;0.00;0.00;;;;;12.67;70.58;100623.03;5058635;28;45878;-87
2021/05/26 05:41:56;;;;;;;;;0.00;0.00;;;;;12.60;70.67;100622.66;5056737;28;46065;-87
2021/05/26 05:44:22;;;;;;;;;0.00;0.00;;;;;12.66;70.55;100628.41;5055158;28;47317;-86
2021/05/26 05:46:48;;;;;;;;;0.00;0.00;;;;;12.68;70.53;100644.91;5054717;28;45534;-86
2021/05/26 05:49:13;;;;;;;;;0.00;0.00;;;;;12.65;70.25;100643.31;5072953;28;45922;-87
2021/05/26 05:51:39;;;;;;;;;0.00;0.00;;;;;12.67;70.54;100644.06;5057779;28;46246;-86
2021/05/26 05:57:26;;;;;;;;;0.00;0.00;;;;;12.60;70.67;100653.38;5056595;28;45661;-85
2021/05/26 05:59:51;;;;;;;;;0.00;0.00;;;;;12.52;70.81;100653.97;5055195;28;45771;-86
2021/05/26 06:02:17;;;;;;;;;0.00;0.00;;;;;12.55;70.57;100656.38;5057413;28;45664;-87
2021/05/26 06:04:42;;;;;;;;;0.00;0.00;;;;;12.56;70.75;100658.03;5057031;28;47336;-88
2021/05/26 06:07:17;;;;;;;;;1.00;0.00;;;;;12.58;70.57;100674.50;5056295;28;46043;-88
2021/05/26 06:09:43;;;;;;;;;0.25;0.00;;;;;12.50;70.65;100663.78;5064616;28;45820;-86
2021/05/26 06:12:09;;;;;;;;;0.00;0.00;;;;;12.51;70.88;100668.09;5071362;28;46579;-87
2021/05/26 06:14:34;;;;;;;;;0.00;0.00;;;;;12.56;70.65;100668.56;5073829;28;45436;-87
2021/05/26 06:17:00;;;;;;;;;0.00;0.00;;;;;12.54;70.56;100686.22;5071639;28;45843;-86
2021/05/26 06:19:28;;;;;;;;;0.00;0.00;;;;;12.60;70.72;100695.44;5062098;28;45589;-87
2021/05/26 06:21:54;;;;;;;;;1.00;0.00;;;;;12.58;70.43;100682.41;5056916;28;48130;-85
2021/05/26 06:27:41;;;;;;;;;1.00;0.00;;;;;12.56;70.58;100694.84;5056515;28;45703;-86
2021/05/26 06:30:08;;;;;;;;;0.00;0.00;;;;;12.56;70.92;100694.84;5055003;28;45613;-87
2021/05/26 06:32:33;;;;;;;;;0.00;0.00;;;;;12.54;71.01;100701.16;5055915;28;47335;-88
2021/05/26 06:34:59;;;;;;;;;0.00;0.00;;;;;12.54;71.00;100707.25;5073713;28;47247;-89
2021/05/26 06:37:24;;;;;;;;;0.00;0.00;;;;;12.63;70.47;100724.13;5060141;28;45830;-88
2021/05/26 06:39:51;;;;;;;;;0.00;0.00;;;;;12.64;70.25;100741.53;5062480;28;46014;-85
2021/05/26 06:42:19;;;;;;;;;1.00;0.00;;;;;12.66;70.53;100725.66;5059758;28;45805;-88
2021/05/26 06:44:45;;;;;;;;;0.00;0.00;;;;;12.61;70.84;100739.16;5055127;28;46187;-87
2021/05/26 06:47:10;;;;;;;;;0.00;0.00;;;;;12.70;70.48;100740.22;5054870;28;45691;-86
2021/05/26 06:49:36;;;;;;;;;0.00;0.00;;;;;12.71;70.76;100757.66;5055161;28;45853;-87
2021/05/26 06:52:02;;;;;;;;;1.00;0.00;;;;;12.69;70.23;100743.78;5055197;28;48553;-87
2021/05/26 06:57:49;;;;;;;;;0.00;0.00;;;;;12.77;69.88;100759.81;5055696;28;45670;-86
2021/05/26 07:00:15;;;;;;;;;0.00;0.00;;;;;12.75;69.33;100780.97;5052586;28;45690;-86
2021/05/26 07:02:41;;;;;;;;;0.00;0.00;;;;;12.76;69.29;100801.06;5053242;28;46776;-86
2021/05/26 07:05:09;;;;;;;;;0.00;0.00;;;;;12.74;68.93;100771.41;5053005;28;46010;-87
2021/05/26 07:07:34;;;;;;;;;0.00;0.00;;;;;12.77;68.79;100781.69;5053320;28;45716;-87
2021/05/26 07:10:00;;;;;;;;;0.00;0.00;;;;;12.81;68.35;100774.41;5055050;28;45531;-78
2021/05/26 07:12:25;;;;;;;;;0.00;0.00;;;;;12.89;68.23;100772.03;5050799;28;45655;-79
2021/05/26 07:14:51;;;;;;;;;0.00;0.00;;;;;12.90;68.53;100782.41;5053382;28;45625;-77
2021/05/26 07:17:16;;;;;;;;;0.00;0.00;;;;;12.90;68.97;100773.72;5053869;28;45616;-81
2021/05/26 07:19:42;;;;;;;;;0.00;0.00;;;;;12.93;68.66;100781.34;5054245;28;45543;-81
2021/05/26 07:22:07;;;;;;;;;0.00;0.00;;;;;12.92;68.63;100785.75;5054277;28;45486;-82
2021/05/26 07:27:54;;;;;;;;;0.00;0.00;;;;;12.91;68.66;100804.28;5055084;28;45652;-81
2021/05/26 07:30:21;;;;;;;;;0.00;0.00;;;;;12.92;68.55;100792.81;5054428;27;45919;-80
2021/05/26 07:32:48;;;;;;;;;0.00;0.00;;;;;12.90;68.12;100816.59;5053921;28;46255;-81
2021/05/26 07:35:14;;;;;;;;;0.00;0.00;;;;;12.90;68.14;100840.25;5053748;28;45959;-79
2021/05/26 07:37:40;;;;;;;;;0.00;0.00;;;;;12.90;67.77;100821.03;5053761;28;45600;-79
2021/05/26 07:43:29;;;;;;;;;0.00;0.00;;;;;12.86;66.91;100817.78;5056959;28;45536;-84
2021/05/26 07:45:55;;;;;;;;;0.00;0.00;;;;;12.84;66.95;100811.00;5056979;28;46030;-80
2021/05/26 07:48:20;;;;;;;;;0.00;0.00;;;;;12.82;66.78;100807.63;5054642;28;45574;-79
2021/05/26 07:50:46;;;;;;;;;0.00;0.00;;;;;12.88;66.77;100833.47;5058958;28;45730;-88
2021/05/26 07:53:12;;;;;;;;;0.25;0.00;;;;;12.94;66.73;100835.63;5059485;27;46431;-82
2021/05/26 07:55:37;;;;;;;;;0.00;0.00;;;;;12.96;66.44;100818.75;5057500;28;46477;-80
2021/05/26 07:58:03;;;;;;;;;0.00;0.00;;;;;12.98;66.56;100808.97;5058087;28;45515;-83
2021/05/26 08:00:28;;;;;;;;;0.00;0.00;;;;;13.04;66.29;100831.31;5058695;28;45712;-80
2021/05/26 08:02:54;;;;;;;;;0.00;0.00;;;;;13.09;66.07;100829.16;5063557;28;46514;-81
2021/05/26 08:05:21;;;;;;;;;0.00;0.00;;;;;13.11;66.46;100835.16;5067657;28;45977;-85
2021/05/26 08:07:47;;;;;;;;;0.00;0.00;;;;;13.14;66.14;100845.47;5068300;28;45518;-81
2021/05/26 08:13:34;;;;;;;;;0.00;0.00;;;;;13.17;66.13;100858.34;5048893;28;46063;-84
2021/05/26 08:15:59;;;;;;;;;0.00;0.00;;;;;13.20;65.77;100850.25;5060024;28;45738;-88
2021/05/26 08:18:25;;;;;;;;;0.00;0.00;;;;;13.20;65.71;100844.97;5061453;28;45609;-86
2021/05/26 08:20:50;;;;;;;;;0.50;0.00;;;;;13.24;65.87;100848.19;5063204;28;45703;-82
2021/05/26 08:23:16;;;;;;;;;0.00;0.00;;;;;13.24;65.24;100849.03;5063756;28;46669;-84
2021/05/26 08:25:42;;;;;;;;;0.00;0.00;;;;;13.24;65.32;100830.63;5061500;28;46444;-86
2021/05/26 08:28:08;;;;;;;;;1.00;0.00;;;;;13.29;64.79;100854.78;5061636;28;45597;-84
2021/05/26 08:30:34;;;;;;;;;0.00;0.00;;;;;13.28;64.12;100853.09;5062849;28;45755;-85
2021/05/26 08:32:59;;;;;;;;;0.50;0.00;;;;;13.24;63.94;100845.56;5059741;28;45520;-82
2021/05/26 08:35:25;;;;;;;;;0.25;0.25;;;;;13.27;63.69;100864.59;5058029;28;47432;-87
2021/05/26 08:37:51;;;;;;;;;0.00;0.00;;;;;13.23;63.35;100850.00;5059390;28;45594;-84
2021/05/26 08:43:40;;;;;;;;;0.00;0.00;;;;;13.30;63.03;100872.25;5059468;28;45649;-86
2021/05/26 08:46:07;;;;;;;;;0.00;0.00;;;;;13.33;63.24;100861.47;5062078;28;45936;-87
2021/05/26 08:48:40;;;;;;;;;1.00;0.00;;;;;13.35;62.98;100856.09;5061913;28;45624;-87
2021/05/26 08:51:06;;;;;;;;;1.00;0.00;;;;;13.40;62.90;100875.81;5063485;28;45697;-91
2021/05/26 08:53:35;;;;;;;;;1.00;0.25;;;;;13.42;62.48;100868.66;5061580;28;46775;-83
2021/05/26 08:56:01;;;;;;;;;1.00;1.00;;;;;13.45;62.33;100865.78;5059305;28;45638;-89
2021/05/26 08:58:26;;;;;;;;;2.00;1.00;;;;;13.51;62.25;100850.44;5058003;28;45579;-84
2021/05/26 09:00:52;;;;;;;;;0.00;0.00;;;;;13.53;62.62;100848.53;5058019;28;45571;-86
2021/05/26 09:03:17;;;;;;;;;1.00;1.00;;;;;13.58;62.13;100846.38;5058343;28;46555;-88
2021/05/26 09:05:51;;;;;;;;;1.00;1.00;;;;;13.63;61.91;100863.50;5057816;28;45433;-84
2021/05/26 09:08:21;;;;;;;;;1.50;1.50;;;;;13.67;61.93;100856.16;5057805;28;45797;-81
2021/05/26 09:14:13;;;;;;;;;1.00;1.00;;;;;13.71;60.63;100862.88;5050849;28;45576;-82
2021/05/26 09:16:38;;;;;;;;;0.25;0.25;;;;;13.71;60.28;100855.00;5057270;28;45499;-81
2021/05/26 09:19:05;;;;;;;;;0.50;0.50;;;;;13.74;60.30;100860.00;5056509;28;45748;-83
2021/05/26 09:21:46;;;;;;;;;2.00;2.00;;;;;13.83;60.57;100857.44;5057723;28;45585;-82
2021/05/26 09:24:21;;;;;;;;;1.00;1.00;;;;;13.92;60.53;100849.78;5054931;28;46810;-78
2021/05/26 09:26:53;;;;;;;;;2.50;1.50;;;;;14.01;60.43;100851.66;5058162;28;46013;-80
2021/05/26 09:29:27;;;;;;;;;1.00;1.00;;;;;14.13;60.37;100858.56;5059264;28;45609;-80
2021/05/26 09:32:23;;;;;;;;;2.00;1.00;;;;;14.22;60.78;100866.56;5057318;28;45491;-81
2021/05/26 09:34:50;;;;;;;;;2.75;2.50;;;;;14.26;59.75;100867.97;5056480;28;46739;-78
2021/05/26 09:37:23;;;;;;;;;3.00;2.00;;;;;14.33;60.41;100865.66;5056277;28;46553;-83
2021/05/26 09:39:55;;;;;;;;;2.75;1.00;;;;;14.34;59.04;100861.22;5056841;28;45465;-84
2021/05/26 09:42:45;;;;;;;;;1.25;1.25;;;;;14.36;59.51;100881.22;5056808;28;45494;-81
2021/05/26 09:45:13;;;;;;;;;1.75;1.75;;;;;14.41;59.51;100884.38;5056005;28;46534;-80
2021/05/26 09:47:43;;;;;;;;;2.00;2.00;;;;;14.47;58.65;100881.19;5056141;28;46047;-79
2021/05/26 09:50:24;;;;;;;;;1.75;1.75;;;;;14.52;58.28;100872.94;5055701;28;45589;-80
2021/05/26 09:53:09;;;;;;;;;2.25;2.00;;;;;14.59;57.57;100879.34;5054833;28;45921;-80
2021/05/26 09:55:43;;;;;;;;;2.00;2.00;;;;;14.61;57.57;100888.81;5055468;28;45692;-79
2021/05/26 09:58:11;;;;;;;;;2.00;2.00;;;;;14.67;56.59;100884.81;5056144;28;46555;-78
2021/05/26 10:00:39;;;;;;;;;2.75;2.00;;;;;14.73;56.47;100880.84;5055621;28;45614;-79
2021/05/26 10:03:05;;;;;;;;;2.00;2.00;;;;;14.74;56.28;100896.50;5055646;28;45646;-79
2021/05/26 10:05:31;;;;;;;;;2.00;1.75;;;;;14.83;57.01;100876.47;5056945;28;45481;-77
2021/05/26 10:07:58;;;;;;;;;2.25;2.00;;;;;14.88;57.21;100883.03;5056129;27;46145;-80
2021/05/26 10:10:27;;;;;;;;;2.25;2.00;;;;;14.90;57.41;100890.81;5053609;28;45669;-78
2021/05/26 10:12:59;;;;;;;;;2.50;2.00;;;;;14.97;57.14;100887.50;5054417;28;45496;-79
2021/05/26 10:15:27;;;;;;;;;2.75;2.00;;;;;14.98;56.26;100885.72;5054699;28;46898;-79
2021/05/26 10:17:54;;;;;;;;;1.50;1.50;;;;;15.05;57.06;100892.97;5055078;28;45630;-79
2021/05/26 10:20:28;;;;;;;;;2.75;2.00;;;;;15.08;56.68;100887.44;5053589;28;46140;-81
2021/05/26 10:23:02;;;;;;;;;4.00;3.00;;;;;15.11;56.96;100884.50;5056346;28;45729;-81
2021/05/26 10:25:27;;;;;;;;;2.50;2.00;;;;;15.15;57.27;100889.56;5054862;28;45566;-81
2021/05/26 10:27:58;;;;;;;;;2.50;2.00;;;;;15.21;57.30;100892.50;5054866;28;46134;-77
2021/05/26 10:30:27;;;;;;;;;3.00;3.00;;;;;15.26;57.26;100892.09;5054999;28;45778;-78
2021/05/26 10:33:05;;;;;;;;;2.00;2.00;;;;;15.28;57.00;100904.19;5055138;28;45514;-79
2021/05/26 10:35:57;;;;;;;;;3.00;3.00;;;;;15.30;56.66;100909.34;5055390;28;45665;-80
2021/05/26 10:38:26;;;;;;;;;3.00;3.00;;;;;15.32;56.55;100902.97;5055755;28;46244;-80
2021/05/26 10:40:54;;;;;;;;;4.25;3.00;;;;;15.35;56.49;100899.22;5056355;28;45678;-81
2021/05/26 10:43:20;;;;;;;;;6.75;4.75;;;;;15.37;55.68;100890.22;5055027;28;45755;-80
2021/05/26 10:45:47;;;;;;;;;4.00;3.00;;;;;15.33;55.87;100907.28;5055097;28;46591;-81
2021/05/26 10:48:13;;;;;;;;;4.75;4.00;;;;;15.41;55.84;100903.97;5054803;28;45867;-80
2021/05/26 10:50:49;;;;;;;;;4.25;3.00;;;;;15.44;55.13;100909.81;5054577;28;45799;-80
2021/05/26 10:53:17;;;;;;;;;4.50;4.00;;;;;15.45;55.84;100893.00;5054124;27;45920;-80
2021/05/26 10:55:47;;;;;;;;;5.50;4.00;;;;;15.49;55.55;100902.34;5054245;28;45573;-80
2021/05/26 10:58:26;;;;;;;;;4.25;4.00;;;;;15.56;54.55;100912.41;5054362;28;45874;-80
2021/05/26 11:01:01;;;;;;;;;2.50;2.50;;;;;15.60;54.28;100903.25;5055899;28;45772;-81
2021/05/26 11:03:30;;;;;;;;;3.25;3.25;;;;;15.64;55.01;100899.38;5055567;28;45692;-79
2021/05/26 11:05:58;;;;;;;;;4.00;3.50;;;;;15.68;54.64;100898.97;5069515;28;47528;-82
2021/05/26 11:08:27;;;;;;;;;5.50;5.00;;;;;15.75;54.49;100902.75;5056177;28;45994;-79
2021/05/26 11:10:53;;;;;;;;;5.00;3.75;;;;;15.79;54.40;100900.66;5054856;28;45844;-82
2021/05/26 11:13:18;;;;;;;;;4.00;4.00;;;;;15.78;54.55;100886.63;5055278;28;45641;-83
2021/05/26 11:15:48;;;;;;;;;3.50;3.00;;;;;15.89;54.29;100890.94;5056911;28;46426;-79
2021/05/26 11:18:28;;;;;;;;;3.25;3.25;;;;;15.93;54.43;100887.91;5056439;28;45984;-83
2021/05/26 11:20:54;;;;;;;;;4.00;3.25;;;;;16.05;54.63;100899.19;5056112;28;45558;-79
2021/05/26 11:23:20;;;;;;;;;4.00;4.00;;;;;16.12;54.17;100884.44;5055250;28;45701;-82
2021/05/26 11:25:53;;;;;;;;;4.00;4.00;;;;;16.21;53.78;100885.41;5053013;28;45571;-79
2021/05/26 11:28:34;;;;;;;;;3.00;3.00;;;;;16.29;53.70;100896.16;5053989;28;45985;-78
2021/05/26 11:31:08;;;;;;;;;2.25;2.25;;;;;16.33;53.21;100890.44;5054085;28;45704;-81
2021/05/26 11:33:34;;;;;;;;;1.75;1.00;;;;;16.38;52.76;100895.31;5053812;28;45760;-81
2021/05/26 11:36:04;;;;;;;;;2.00;2.00;;;;;16.41;52.84;100902.16;5053929;28;45741;-82
2021/05/26 11:38:31;;;;;;;;;2.00;2.00;;;;;16.42;52.52;100887.94;5054440;28;46223;-81
2021/05/26 11:40:56;;;;;;;;;2.25;2.25;;;;;16.40;52.13;100895.19;5053809;28;45625;-82
2021/05/26 11:43:23;;;;;;;;;3.25;2.75;;;;;16.46;52.49;100902.56;5053821;28;45651;-80
2021/05/26 11:46:06;;;;;;;;;3.00;2.25;;;;;16.50;52.72;100902.13;5053723;28;45526;-80
2021/05/26 11:48:31;;;;;;;;;2.00;2.00;;;;;16.50;50.78;100894.22;5054987;28;46377;-81
2021/05/26 11:50:57;;;;;;;;;2.00;2.00;;;;;16.51;51.79;100900.34;5056082;28;45666;-80
2021/05/26 11:53:23;;;;;;;;;2.50;2.50;;;;;16.53;51.94;100901.84;5053831;28;45559;-81
2021/05/26 11:55:51;;;;;;;;;2.00;2.00;;;;;16.59;51.88;100903.13;5068910;28;46866;-81
2021/05/26 11:58:35;;;;;;;;;4.00;3.50;;;;;16.64;51.66;100901.72;5053626;28;45909;-78
2021/05/26 12:01:03;;;;;;;;;3.00;3.00;;;;;16.67;51.68;100903.28;5067358;27;45707;-79
2021/05/26 12:03:30;;;;;;;;;2.50;2.50;;;;;16.70;51.68;100895.03;5052739;28;45726;-81
2021/05/26 12:05:56;;;;;;;;;2.00;2.00;;;;;16.74;51.65;100886.69;5053241;28;46757;-78
2021/05/26 12:08:27;;;;;;;;;4.25;3.75;;;;;16.83;51.85;100892.94;5053160;28;45946;-80
2021/05/26 12:11:00;;;;;;;;;3.50;3.00;;;;;16.90;51.65;100883.44;5053080;28;45810;-78
2021/05/26 12:13:34;;;;;;;;;3.00;2.00;;;;;16.90;51.62;100877.31;5053029;28;45747;-80
2021/05/26 12:16:05;;;;;;;;;1.50;1.50;;;;;16.96;51.86;100874.94;5053008;28;45741;-81
2021/05/26 12:18:31;;;;;;;;;1.00;1.00;;;;;16.96;51.23;100892.63;5053103;28;46497;-79
2021/05/26 12:20:57;;;;;;;;;2.00;2.00;;;;;16.94;51.19;100884.00;5053490;28;45727;-78
2021/05/26 12:23:32;;;;;;;;;2.00;2.00;;;;;16.93;51.00;100901.69;5052999;28;46072;-79
2021/05/26 12:25:58;;;;;;;;;2.00;1.00;;;;;16.89;50.82;100894.19;5054451;28;45971;-80
2021/05/26 12:28:26;;;;;;;;;2.00;2.00;;;;;16.81;50.92;100894.88;5053207;28;46088;-80
2021/05/26 12:30:51;;;;;;;;;4.00;2.50;;;;;16.80;51.21;100911.75;5053180;28;45804;-78
2021/05/26 12:33:22;;;;;;;;;2.00;1.00;;;;;16.76;50.09;100899.78;5053024;28;45638;-80